createdAt,value
2018-03-22T00:00:08.585Z,958.86
2018-03-22T00:01:08.548Z,958.79
2018-03-22T00:02:08.527Z,958.86
2018-03-22T00:03:08.508Z,958.83
2018-03-22T00:04:08.488Z,958.81
2018-03-22T00:05:08.473Z,958.85
2018-03-22T00:06:08.449Z,958.77
2018-03-22T00:07:08.429Z,958.77
2018-03-22T00:08:08.409Z,958.71
2018-03-22T00:09:08.391Z,958.74
2018-03-22T00:10:08.369Z,958.71
2018-03-22T00:11:08.350Z,958.76
2018-03-22T00:12:08.330Z,958.71
2018-03-22T00:13:08.308Z,958.69
2018-03-22T00:14:08.289Z,958.69
2018-03-22T00:15:08.270Z,958.77
2018-03-22T00:16:08.250Z,958.68
2018-03-22T00:17:08.229Z,958.67
2018-03-22T00:18:08.210Z,958.69
2018-03-22T00:19:08.189Z,958.64
2018-03-22T00:20:08.171Z,958.65
2018-03-22T00:21:08.149Z,958.62
2018-03-22T00:22:08.130Z,958.62
2018-03-22T00:23:08.110Z,958.66
2018-03-22T00:24:08.090Z,958.63
2018-03-22T00:25:08.069Z,958.6
2018-03-22T00:26:08.050Z,958.62
2018-03-22T00:27:08.036Z,958.56
2018-03-22T00:28:08.009Z,958.56
2018-03-22T00:29:07.990Z,958.53
2018-03-22T00:30:07.970Z,958.54
2018-03-22T00:31:07.950Z,958.51
2018-03-22T00:32:07.932Z,958.54
2018-03-22T00:33:07.910Z,958.5
2018-03-22T00:34:07.890Z,958.51
2018-03-22T00:35:07.865Z,958.5
2018-03-22T00:36:07.847Z,958.52
2018-03-22T00:37:07.826Z,958.51
2018-03-22T00:38:07.807Z,958.51
2018-03-22T00:39:07.786Z,958.49
2018-03-22T00:40:07.767Z,958.5
2018-03-22T00:41:07.747Z,958.53
2018-03-22T00:42:07.727Z,958.47
2018-03-22T00:43:07.707Z,958.47
2018-03-22T00:44:07.688Z,958.44
2018-03-22T00:45:07.668Z,958.43
2018-03-22T00:46:07.647Z,958.37
2018-03-22T00:47:07.628Z,958.42
2018-03-22T00:48:07.608Z,958.39
2018-03-22T00:49:07.595Z,958.31
2018-03-22T00:50:07.568Z,958.33
2018-03-22T00:51:07.548Z,958.26
2018-03-22T00:52:07.528Z,958.22
2018-03-22T00:53:07.510Z,958.2
2018-03-22T00:54:07.489Z,958.21
2018-03-22T00:55:07.467Z,958.17
2018-03-22T00:56:07.448Z,958.17
2018-03-22T00:57:07.427Z,958.15
2018-03-22T00:58:07.408Z,958.11
2018-03-22T00:59:07.388Z,958.11
2018-03-22T01:00:07.370Z,958.11
2018-03-22T01:01:07.347Z,958.07
2018-03-22T01:02:07.328Z,958.04
2018-03-22T01:03:07.308Z,958.05
2018-03-22T01:04:07.287Z,958
2018-03-22T01:05:07.267Z,958.05
2018-03-22T01:06:07.248Z,958.02
2018-03-22T01:07:07.233Z,958
2018-03-22T01:08:07.207Z,957.91
2018-03-22T01:09:07.187Z,957.95
2018-03-22T01:10:07.168Z,957.91
2018-03-22T01:11:07.148Z,957.93
2018-03-22T01:12:07.128Z,957.93
2018-03-22T01:13:07.108Z,957.82
2018-03-22T01:14:07.087Z,957.85
2018-03-22T01:15:07.067Z,957.84
2018-03-22T01:16:07.047Z,957.84
2018-03-22T01:17:07.028Z,957.82
2018-03-22T01:18:07.014Z,957.84
2018-03-22T01:19:06.988Z,957.82
2018-03-22T01:20:06.967Z,957.82
2018-03-22T01:21:06.948Z,957.8
2018-03-22T01:22:06.929Z,957.82
2018-03-22T01:23:06.908Z,957.83
2018-03-22T01:24:06.888Z,957.83
2018-03-22T01:25:06.870Z,957.81
2018-03-22T01:26:06.848Z,957.8
2018-03-22T01:27:06.828Z,957.78
2018-03-22T01:28:06.808Z,957.81
2018-03-22T01:29:06.788Z,957.77
2018-03-22T01:30:06.767Z,957.8
2018-03-22T01:31:06.748Z,957.75
2018-03-22T01:32:06.728Z,957.72
2018-03-22T01:33:06.708Z,957.72
2018-03-22T01:34:06.688Z,957.73
2018-03-22T01:35:06.668Z,957.69
2018-03-22T01:36:06.648Z,957.69
2018-03-22T01:37:06.628Z,957.63
2018-03-22T01:38:06.610Z,957.64
2018-03-22T01:39:06.591Z,957.67
2018-03-22T01:40:06.569Z,957.67
2018-03-22T01:41:06.548Z,957.75
2018-03-22T01:42:06.528Z,957.71
2018-03-22T01:43:06.513Z,957.74
2018-03-22T01:44:06.489Z,957.64
2018-03-22T01:45:06.468Z,957.61
2018-03-22T01:46:06.448Z,957.6
2018-03-22T01:47:06.428Z,957.6
2018-03-22T01:48:06.407Z,957.62
2018-03-22T01:49:06.390Z,957.58
2018-03-22T01:50:06.372Z,957.54
2018-03-22T01:51:06.348Z,957.62
2018-03-22T01:52:06.327Z,957.6
2018-03-22T01:53:06.307Z,957.59
2018-03-22T01:54:06.288Z,957.56
2018-03-22T01:55:06.268Z,957.59
2018-03-22T01:56:06.247Z,957.56
2018-03-22T01:57:06.228Z,957.58
2018-03-22T01:58:06.208Z,957.56
2018-03-22T01:59:06.187Z,957.51
2018-03-22T02:00:06.168Z,957.49
2018-03-22T02:01:06.147Z,957.49
2018-03-22T02:02:06.127Z,957.5
2018-03-22T02:03:06.107Z,957.5
2018-03-22T02:04:06.087Z,957.43
2018-03-22T02:05:06.067Z,957.39
2018-03-22T02:06:06.047Z,957.4
2018-03-22T02:07:06.026Z,957.38
2018-03-22T02:08:06.007Z,957.35
2018-03-22T02:09:05.987Z,957.34
2018-03-22T02:10:05.986Z,957.31
2018-03-22T02:11:05.946Z,957.29
2018-03-22T02:12:05.927Z,957.24
2018-03-22T02:13:05.907Z,957.23
2018-03-22T02:14:05.886Z,957.25
2018-03-22T02:15:05.866Z,957.22
2018-03-22T02:16:05.847Z,957.15
2018-03-22T02:17:05.826Z,957.15
2018-03-22T02:18:05.806Z,957.13
2018-03-22T02:19:05.786Z,957.07
2018-03-22T02:20:05.767Z,957.12
2018-03-22T02:21:05.746Z,957.1
2018-03-22T02:22:05.726Z,957.05
2018-03-22T02:23:05.706Z,957.07
2018-03-22T02:24:05.686Z,957.04
2018-03-22T02:25:05.665Z,956.99
2018-03-22T02:26:05.644Z,957.02
2018-03-22T02:27:05.625Z,957
2018-03-22T02:28:05.604Z,957
2018-03-22T02:29:05.584Z,957.05
2018-03-22T02:30:05.565Z,957.05
2018-03-22T02:31:05.544Z,956.93
2018-03-22T02:32:05.523Z,956.96
2018-03-22T02:33:05.506Z,957
2018-03-22T02:34:05.487Z,956.93
2018-03-22T02:35:05.464Z,956.91
2018-03-22T02:36:05.444Z,956.95
2018-03-22T02:37:05.423Z,956.98
2018-03-22T02:38:05.404Z,956.99
2018-03-22T02:39:05.383Z,956.96
2018-03-22T02:40:05.362Z,956.99
2018-03-22T02:41:05.343Z,957.01
2018-03-22T02:42:05.322Z,956.93
2018-03-22T02:43:05.302Z,956.97
2018-03-22T02:44:05.283Z,956.9
2018-03-22T02:45:05.262Z,956.88
2018-03-22T02:46:05.242Z,956.8
2018-03-22T02:47:05.222Z,956.86
2018-03-22T02:48:05.201Z,956.78
2018-03-22T02:49:05.180Z,956.79
2018-03-22T02:50:05.160Z,956.75
2018-03-22T02:51:05.174Z,956.75
2018-03-22T02:52:05.119Z,956.75
2018-03-22T02:53:05.100Z,956.68
2018-03-22T02:54:05.081Z,956.59
2018-03-22T02:55:05.059Z,956.61
2018-03-22T02:56:05.047Z,956.62
2018-03-22T02:57:05.032Z,956.62
2018-03-22T02:58:04.998Z,956.55
2018-03-22T02:59:04.979Z,956.57
2018-03-22T03:00:04.964Z,956.6
2018-03-22T03:01:04.943Z,956.59
2018-03-22T03:02:04.919Z,956.6
2018-03-22T03:03:04.902Z,956.57
2018-03-22T03:04:04.884Z,956.51
2018-03-22T03:05:04.857Z,956.51
2018-03-22T03:06:04.837Z,956.5
2018-03-22T03:07:04.817Z,956.53
2018-03-22T03:08:04.798Z,956.47
2018-03-22T03:09:04.775Z,956.46
2018-03-22T03:10:04.757Z,956.38
2018-03-22T03:11:04.737Z,956.35
2018-03-22T03:12:04.716Z,956.34
2018-03-22T03:13:04.696Z,956.35
2018-03-22T03:14:04.678Z,956.34
2018-03-22T03:15:04.656Z,956.41
2018-03-22T03:16:04.638Z,956.33
2018-03-22T03:17:04.617Z,956.31
2018-03-22T03:18:04.595Z,956.34
2018-03-22T03:19:04.577Z,956.33
2018-03-22T03:20:04.555Z,956.32
2018-03-22T03:21:04.536Z,956.3
2018-03-22T03:22:04.515Z,956.28
2018-03-22T03:23:04.495Z,956.27
2018-03-22T03:24:04.474Z,956.24
2018-03-22T03:25:04.455Z,956.18
2018-03-22T03:26:04.438Z,956.17
2018-03-22T03:27:04.414Z,956.19
2018-03-22T03:28:04.394Z,956.16
2018-03-22T03:29:04.375Z,956.2
2018-03-22T03:30:04.357Z,956.16
2018-03-22T03:31:04.335Z,956.12
2018-03-22T03:32:04.314Z,956.07
2018-03-22T03:33:04.296Z,956.08
2018-03-22T03:34:04.273Z,956.12
2018-03-22T03:35:04.257Z,956.09
2018-03-22T03:36:04.234Z,956.03
2018-03-22T03:37:04.215Z,956.03
2018-03-22T03:38:04.194Z,955.98
2018-03-22T03:39:04.174Z,955.99
2018-03-22T03:40:04.155Z,955.86
2018-03-22T03:41:04.134Z,955.95
2018-03-22T03:42:04.119Z,955.88
2018-03-22T03:43:04.094Z,955.89
2018-03-22T03:44:04.074Z,955.8
2018-03-22T03:45:04.053Z,955.81
2018-03-22T03:46:04.034Z,955.86
2018-03-22T03:47:04.014Z,955.82
2018-03-22T03:48:03.994Z,955.76
2018-03-22T03:49:03.974Z,955.74
2018-03-22T03:50:03.953Z,955.72
2018-03-22T03:51:03.934Z,955.77
2018-03-22T03:52:03.914Z,955.77
2018-03-22T03:53:03.895Z,955.82
2018-03-22T03:54:03.875Z,955.71
2018-03-22T03:55:03.855Z,955.76
2018-03-22T03:56:03.836Z,955.71
2018-03-22T03:57:03.815Z,955.66
2018-03-22T03:58:03.795Z,955.67
2018-03-22T03:59:03.776Z,955.62
2018-03-22T04:00:03.755Z,955.64
2018-03-22T04:01:03.736Z,955.61
2018-03-22T04:02:03.716Z,955.69
2018-03-22T04:03:03.697Z,955.56
2018-03-22T04:04:03.676Z,955.59
2018-03-22T04:05:03.657Z,955.52
2018-03-22T04:06:03.637Z,955.55
2018-03-22T04:07:03.615Z,955.58
2018-03-22T04:08:03.596Z,955.59
2018-03-22T04:09:03.576Z,955.52
2018-03-22T04:10:03.556Z,955.54
2018-03-22T04:11:03.537Z,955.57
2018-03-22T04:12:03.517Z,955.51
2018-03-22T04:13:03.497Z,955.53
2018-03-22T04:14:03.476Z,955.51
2018-03-22T04:15:03.456Z,955.41
2018-03-22T04:16:03.437Z,955.41
2018-03-22T04:17:03.418Z,955.42
2018-03-22T04:18:03.397Z,955.44
2018-03-22T04:19:03.377Z,955.4
2018-03-22T04:20:03.358Z,955.32
2018-03-22T04:21:03.337Z,955.37
2018-03-22T04:22:03.317Z,955.3
2018-03-22T04:23:03.296Z,955.34
2018-03-22T04:24:03.276Z,955.3
2018-03-22T04:25:03.256Z,955.23
2018-03-22T04:26:03.237Z,955.18
2018-03-22T04:27:03.217Z,955.19
2018-03-22T04:28:03.198Z,955.15
2018-03-22T04:29:03.176Z,955.22
2018-03-22T04:30:03.157Z,955.23
2018-03-22T04:31:03.137Z,955.19
2018-03-22T04:32:03.120Z,955.14
2018-03-22T04:33:03.097Z,955.17
2018-03-22T04:34:03.077Z,955.11
2018-03-22T04:35:03.057Z,955.14
2018-03-22T04:36:03.036Z,955.18
2018-03-22T04:37:03.017Z,955.15
2018-03-22T04:38:02.997Z,955.13
2018-03-22T04:39:02.977Z,955.11
2018-03-22T04:40:02.956Z,955.13
2018-03-22T04:41:02.936Z,955.07
2018-03-22T04:42:02.916Z,955.12
2018-03-22T04:43:02.897Z,955.1
2018-03-22T04:44:02.876Z,954.98
2018-03-22T04:45:02.859Z,955.03
2018-03-22T04:46:02.836Z,954.98
2018-03-22T04:47:02.816Z,954.96
2018-03-22T04:48:02.797Z,955
2018-03-22T04:49:02.776Z,954.98
2018-03-22T04:50:02.756Z,955
2018-03-22T04:51:02.734Z,954.97
2018-03-22T04:52:02.715Z,954.97
2018-03-22T04:53:02.695Z,954.97
2018-03-22T04:54:02.675Z,954.95
2018-03-22T04:55:02.654Z,954.94
2018-03-22T04:56:02.634Z,954.91
2018-03-22T04:57:02.615Z,954.86
2018-03-22T04:58:02.602Z,954.92
2018-03-22T04:59:02.574Z,954.89
2018-03-22T05:00:02.554Z,954.92
2018-03-22T05:01:02.538Z,954.87
2018-03-22T05:02:02.514Z,954.88
2018-03-22T05:03:02.494Z,954.91
2018-03-22T05:04:02.473Z,954.9
2018-03-22T05:05:02.454Z,954.85
2018-03-22T05:06:02.433Z,954.75
2018-03-22T05:07:02.418Z,954.83
2018-03-22T05:08:02.393Z,954.83
2018-03-22T05:09:02.372Z,954.81
2018-03-22T05:10:02.356Z,954.82
2018-03-22T05:11:02.333Z,954.82
2018-03-22T05:12:02.313Z,954.77
2018-03-22T05:13:02.293Z,954.73
2018-03-22T05:14:02.272Z,954.81
2018-03-22T05:15:02.258Z,954.79
2018-03-22T05:16:02.234Z,954.78
2018-03-22T05:17:02.212Z,954.72
2018-03-22T05:18:02.192Z,954.72
2018-03-22T05:19:02.174Z,954.75
2018-03-22T05:20:02.151Z,954.74
2018-03-22T05:21:02.131Z,954.68
2018-03-22T05:22:02.112Z,954.63
2018-03-22T05:23:02.094Z,954.69
2018-03-22T05:24:02.071Z,954.71
2018-03-22T05:25:02.129Z,954.54
2018-03-22T05:26:02.031Z,954.64
2018-03-22T05:27:02.012Z,954.66
2018-03-22T05:28:01.991Z,954.59
2018-03-22T05:29:01.972Z,954.55
2018-03-22T05:30:01.953Z,954.53
2018-03-22T05:31:01.933Z,954.5
2018-03-22T05:32:01.920Z,954.48
2018-03-22T05:33:01.897Z,954.52
2018-03-22T05:34:01.875Z,954.51
2018-03-22T05:35:01.854Z,954.53
2018-03-22T05:36:01.835Z,954.44
2018-03-22T05:37:01.814Z,954.52
2018-03-22T05:38:01.811Z,954.48
2018-03-22T05:39:01.773Z,954.41
2018-03-22T05:40:01.754Z,954.43
2018-03-22T05:41:01.732Z,954.47
2018-03-22T05:42:01.712Z,954.54
2018-03-22T05:43:01.693Z,954.53
2018-03-22T05:44:01.673Z,954.5
2018-03-22T05:45:01.653Z,954.5
2018-03-22T05:46:01.633Z,954.43
2018-03-22T05:47:01.615Z,954.47
2018-03-22T05:48:01.595Z,954.53
2018-03-22T05:49:01.572Z,954.5
2018-03-22T05:50:01.554Z,954.5
2018-03-22T05:51:01.534Z,954.5
2018-03-22T05:52:01.515Z,954.45
2018-03-22T05:53:01.494Z,954.5
2018-03-22T05:54:01.475Z,954.48
2018-03-22T05:55:01.456Z,954.52
2018-03-22T05:56:01.436Z,954.44
2018-03-22T05:57:01.415Z,954.45
2018-03-22T05:58:01.396Z,954.47
2018-03-22T05:59:01.377Z,954.51
2018-03-22T06:00:01.358Z,954.45
2018-03-22T06:01:01.340Z,954.47
2018-03-22T06:02:01.319Z,954.46
2018-03-22T06:03:01.299Z,954.38
2018-03-22T06:04:01.279Z,954.39
2018-03-22T06:05:01.262Z,954.36
2018-03-22T06:06:01.242Z,954.33
2018-03-22T06:07:01.223Z,954.37
2018-03-22T06:08:01.203Z,954.4
2018-03-22T06:09:01.184Z,954.32
2018-03-22T06:10:01.168Z,954.32
2018-03-22T06:11:01.144Z,954.36
2018-03-22T06:12:01.128Z,954.34
2018-03-22T06:13:01.110Z,954.31
2018-03-22T06:14:01.088Z,954.28
2018-03-22T06:15:01.076Z,954.36
2018-03-22T06:16:01.049Z,954.29
2018-03-22T06:17:01.033Z,954.28
2018-03-22T06:18:01.011Z,954.26
2018-03-22T06:19:00.992Z,954.24
2018-03-22T06:20:00.972Z,954.23
2018-03-22T06:21:00.954Z,954.21
2018-03-22T06:22:00.934Z,954.27
2018-03-22T06:23:00.916Z,954.21
2018-03-22T06:24:00.896Z,954.19
2018-03-22T06:25:00.877Z,954.19
2018-03-22T06:26:00.858Z,954.2
2018-03-22T06:27:00.839Z,954.22
2018-03-22T06:28:00.821Z,954.21
2018-03-22T06:29:00.801Z,954.19
2018-03-22T06:30:00.783Z,954.2
2018-03-22T06:31:00.762Z,954.12
2018-03-22T06:32:00.744Z,954.2
2018-03-22T06:33:00.724Z,954.14
2018-03-22T06:34:00.706Z,954.12
2018-03-22T06:35:00.686Z,954.16
2018-03-22T06:36:00.667Z,954.15
2018-03-22T06:37:00.652Z,954.14
2018-03-22T06:38:00.630Z,954.13
2018-03-22T06:39:00.611Z,954.14
2018-03-22T06:40:00.592Z,954.15
2018-03-22T06:41:00.573Z,954.11
2018-03-22T06:42:00.554Z,954.05
2018-03-22T06:43:00.535Z,954.08
2018-03-22T06:44:00.515Z,954.06
2018-03-22T06:45:00.502Z,954.07
2018-03-22T06:46:00.479Z,954.08
2018-03-22T06:47:00.459Z,954.02
2018-03-22T06:48:00.440Z,954.04
2018-03-22T06:49:00.422Z,954.02
2018-03-22T06:50:00.403Z,954.08
2018-03-22T06:51:00.384Z,954.09
2018-03-22T06:52:00.365Z,954.05
2018-03-22T06:53:00.347Z,954.08
2018-03-22T06:54:00.331Z,954.12
2018-03-22T06:55:00.308Z,954.11
2018-03-22T06:56:00.290Z,954.04
2018-03-22T06:57:00.283Z,954.06
2018-03-22T06:58:00.254Z,954.02
2018-03-22T06:59:00.233Z,953.99
2018-03-22T07:00:00.215Z,954.03
2018-03-22T07:01:00.196Z,953.94
2018-03-22T07:02:00.186Z,953.94
2018-03-22T07:03:00.160Z,953.99
2018-03-22T07:04:00.142Z,954.01
2018-03-22T07:05:00.123Z,953.99
2018-03-22T07:06:00.104Z,953.94
2018-03-22T07:07:00.097Z,953.9
2018-03-22T07:08:00.068Z,953.94
2018-03-22T07:09:00.049Z,953.91
2018-03-22T07:10:00.030Z,953.86
2018-03-22T07:11:00.012Z,953.85
2018-03-22T07:11:59.993Z,953.89
2018-03-22T07:12:59.974Z,953.92
2018-03-22T07:13:59.956Z,953.85
2018-03-22T07:14:59.939Z,953.88
2018-03-22T07:15:59.925Z,953.83
2018-03-22T07:16:59.901Z,953.79
2018-03-22T07:17:59.884Z,953.8
2018-03-22T07:18:59.868Z,953.82
2018-03-22T07:19:59.849Z,953.83
2018-03-22T07:20:59.829Z,953.8
2018-03-22T07:21:59.811Z,953.82
2018-03-22T07:22:59.794Z,953.86
2018-03-22T07:23:59.775Z,953.83
2018-03-22T07:24:59.756Z,953.81
2018-03-22T07:25:59.771Z,953.73
2018-03-22T07:26:59.721Z,953.72
2018-03-22T07:27:59.702Z,953.68
2018-03-22T07:28:59.685Z,953.72
2018-03-22T07:29:59.667Z,953.65
2018-03-22T07:30:59.649Z,953.65
2018-03-22T07:31:59.630Z,953.69
2018-03-22T07:32:59.612Z,953.68
2018-03-22T07:33:59.595Z,953.66
2018-03-22T07:34:59.575Z,953.59
2018-03-22T07:35:59.558Z,953.61
2018-03-22T07:36:59.540Z,953.64
2018-03-22T07:37:59.523Z,953.61
2018-03-22T07:38:59.507Z,953.68
2018-03-22T07:39:59.486Z,953.5
2018-03-22T07:40:59.468Z,953.62
2018-03-22T07:41:59.474Z,953.62
2018-03-22T07:42:59.431Z,953.59
2018-03-22T07:43:59.413Z,953.59
2018-03-22T07:44:59.411Z,953.58
2018-03-22T07:45:59.377Z,953.58
2018-03-22T07:46:59.365Z,953.57
2018-03-22T07:47:59.341Z,953.55
2018-03-22T07:48:59.323Z,953.59
2018-03-22T07:49:59.304Z,953.58
2018-03-22T07:50:59.286Z,953.53
2018-03-22T07:51:59.268Z,953.61
2018-03-22T07:52:59.250Z,953.61
2018-03-22T07:53:59.231Z,953.57
2018-03-22T07:54:59.213Z,953.5
2018-03-22T07:55:59.195Z,953.47
2018-03-22T07:56:59.177Z,953.49
2018-03-22T07:57:59.158Z,953.33
2018-03-22T07:58:59.159Z,953.35
2018-03-22T07:59:59.130Z,953.37
2018-03-22T08:00:59.105Z,953.36
2018-03-22T08:01:59.087Z,953.36
2018-03-22T08:02:59.070Z,953.32
2018-03-22T08:03:59.053Z,953.33
2018-03-22T08:04:59.034Z,953.34
2018-03-22T08:05:59.041Z,953.38
2018-03-22T08:06:59.000Z,953.35
2018-03-22T08:07:58.981Z,953.39
2018-03-22T08:08:58.965Z,953.45
2018-03-22T08:09:58.947Z,953.39
2018-03-22T08:10:58.930Z,953.38
2018-03-22T08:11:58.912Z,953.43
2018-03-22T08:12:58.895Z,953.4
2018-03-22T08:13:58.878Z,953.36
2018-03-22T08:14:58.867Z,953.37
2018-03-22T08:15:58.844Z,953.36
2018-03-22T08:16:58.828Z,953.39
2018-03-22T08:17:58.811Z,953.37
2018-03-22T08:18:58.794Z,953.33
2018-03-22T08:19:58.777Z,953.34
2018-03-22T08:20:58.761Z,953.29
2018-03-22T08:21:58.745Z,953.3
2018-03-22T08:22:58.727Z,953.26
2018-03-22T08:23:58.724Z,953.21
2018-03-22T08:24:58.695Z,953.22
2018-03-22T08:25:58.677Z,953.22
2018-03-22T08:26:58.661Z,953.14
2018-03-22T08:27:58.645Z,953.17
2018-03-22T08:28:58.627Z,953.1
2018-03-22T08:29:58.610Z,953.16
2018-03-22T08:30:58.594Z,953.07
2018-03-22T08:31:58.577Z,953.06
2018-03-22T08:32:58.560Z,953.04
2018-03-22T08:33:58.543Z,953
2018-03-22T08:34:58.527Z,952.99
2018-03-22T08:35:58.510Z,952.95
2018-03-22T08:36:58.493Z,952.94
2018-03-22T08:37:58.476Z,952.87
2018-03-22T08:38:58.460Z,952.82
2018-03-22T08:39:58.443Z,952.84
2018-03-22T08:40:58.425Z,952.9
2018-03-22T08:41:58.409Z,952.85
2018-03-22T08:42:58.393Z,952.77
2018-03-22T08:43:58.375Z,952.82
2018-03-22T08:44:58.359Z,952.78
2018-03-22T08:45:58.343Z,952.77
2018-03-22T08:46:58.324Z,952.7
2018-03-22T08:47:58.307Z,952.71
2018-03-22T08:48:58.290Z,952.7
2018-03-22T08:49:58.273Z,952.67
2018-03-22T08:50:58.257Z,952.68
2018-03-22T08:51:58.239Z,952.58
2018-03-22T08:52:58.223Z,952.61
2018-03-22T08:53:58.205Z,952.64
2018-03-22T08:54:58.189Z,952.6
2018-03-22T08:55:58.172Z,952.59
2018-03-22T08:56:58.157Z,952.6
2018-03-22T08:57:58.137Z,952.56
2018-03-22T08:58:58.125Z,952.52
2018-03-22T08:59:58.108Z,952.5
2018-03-22T09:00:58.087Z,952.52
2018-03-22T09:01:58.070Z,952.49
2018-03-22T09:02:58.052Z,952.5
2018-03-22T09:03:58.036Z,952.51
2018-03-22T09:04:58.019Z,952.55
2018-03-22T09:05:58.002Z,952.53
2018-03-22T09:06:57.984Z,952.5
2018-03-22T09:07:57.967Z,952.43
2018-03-22T09:08:57.950Z,952.29
2018-03-22T09:09:57.933Z,952.44
2018-03-22T09:10:57.916Z,952.44
2018-03-22T09:11:57.901Z,952.41
2018-03-22T09:12:57.885Z,952.42
2018-03-22T09:13:57.865Z,952.43
2018-03-22T09:14:57.849Z,952.37
2018-03-22T09:15:57.840Z,952.42
2018-03-22T09:16:57.815Z,952.43
2018-03-22T09:17:57.799Z,952.37
2018-03-22T09:18:57.782Z,952.39
2018-03-22T09:19:57.765Z,952.35
2018-03-22T09:20:57.748Z,952.43
2018-03-22T09:21:57.731Z,952.39
2018-03-22T09:22:57.714Z,952.42
2018-03-22T09:23:57.698Z,952.36
2018-03-22T09:24:57.681Z,952.32
2018-03-22T09:25:57.664Z,952.32
2018-03-22T09:26:57.652Z,952.27
2018-03-22T09:27:57.633Z,952.29
2018-03-22T09:28:57.614Z,952.31
2018-03-22T09:29:57.598Z,952.26
2018-03-22T09:30:57.583Z,952.24
2018-03-22T09:31:57.565Z,952.22
2018-03-22T09:32:57.549Z,952.18
2018-03-22T09:33:57.532Z,952.18
2018-03-22T09:34:57.516Z,952.16
2018-03-22T09:35:57.499Z,952.17
2018-03-22T09:36:57.483Z,952.09
2018-03-22T09:37:57.467Z,952.09
2018-03-22T09:38:57.450Z,952.01
2018-03-22T09:39:57.433Z,952.03
2018-03-22T09:40:57.417Z,952.02
2018-03-22T09:41:57.401Z,951.96
2018-03-22T09:42:57.383Z,952.04
2018-03-22T09:43:57.366Z,951.98
2018-03-22T09:44:57.350Z,952.01
2018-03-22T09:45:57.335Z,951.96
2018-03-22T09:46:57.317Z,951.94
2018-03-22T09:47:57.300Z,951.97
2018-03-22T09:48:57.284Z,951.94
2018-03-22T09:49:57.267Z,951.99
2018-03-22T09:50:57.251Z,951.9
2018-03-22T09:51:57.234Z,951.84
2018-03-22T09:52:57.217Z,951.89
2018-03-22T09:53:57.200Z,951.86
2018-03-22T09:54:57.183Z,951.78
2018-03-22T09:55:57.168Z,951.85
2018-03-22T09:56:57.172Z,951.81
2018-03-22T09:57:57.134Z,951.76
2018-03-22T09:58:57.117Z,951.77
2018-03-22T09:59:57.100Z,951.78
2018-03-22T10:00:57.082Z,951.77
2018-03-22T10:01:57.069Z,951.59
2018-03-22T10:02:57.051Z,951.67
2018-03-22T10:03:57.032Z,951.65
2018-03-22T10:04:57.014Z,951.65
2018-03-22T10:05:56.997Z,951.73
2018-03-22T10:06:56.980Z,951.65
2018-03-22T10:07:56.964Z,951.63
2018-03-22T10:08:56.945Z,951.57
2018-03-22T10:09:56.929Z,951.56
2018-03-22T10:10:56.912Z,951.48
2018-03-22T10:11:56.905Z,951.5
2018-03-22T10:12:56.878Z,951.5
2018-03-22T10:13:56.911Z,951.57
2018-03-22T10:14:56.844Z,951.5
2018-03-22T10:15:56.826Z,951.45
2018-03-22T10:16:56.813Z,951.46
2018-03-22T10:17:56.793Z,951.43
2018-03-22T10:18:56.776Z,951.42
2018-03-22T10:19:56.758Z,951.47
2018-03-22T10:20:56.741Z,951.45
2018-03-22T10:21:56.725Z,951.41
2018-03-22T10:22:56.707Z,951.41
2018-03-22T10:23:56.690Z,951.37
2018-03-22T10:24:56.673Z,951.36
2018-03-22T10:25:56.656Z,951.39
2018-03-22T10:26:56.643Z,951.29
2018-03-22T10:27:56.622Z,951.26
2018-03-22T10:28:56.605Z,951.27
2018-03-22T10:29:56.588Z,951.23
2018-03-22T10:30:56.571Z,951.35
2018-03-22T10:31:56.555Z,951.21
2018-03-22T10:32:56.537Z,951.25
2018-03-22T10:33:56.520Z,951.14
2018-03-22T10:34:56.503Z,951.2
2018-03-22T10:35:56.549Z,951.21
2018-03-22T10:36:56.470Z,951.11
2018-03-22T10:37:56.454Z,951.09
2018-03-22T10:38:56.436Z,951.13
2018-03-22T10:39:56.419Z,951.12
2018-03-22T10:40:56.403Z,951.1
2018-03-22T10:41:56.391Z,951.01
2018-03-22T10:42:56.370Z,951.02
2018-03-22T10:43:56.352Z,951.04
2018-03-22T10:44:56.335Z,951.03
2018-03-22T10:45:56.318Z,950.97
2018-03-22T10:46:56.303Z,950.99
2018-03-22T10:47:56.285Z,950.87
2018-03-22T10:48:56.268Z,951
2018-03-22T10:49:56.252Z,950.93
2018-03-22T10:50:56.236Z,950.9
2018-03-22T10:51:56.219Z,950.84
2018-03-22T10:52:56.201Z,950.87
2018-03-22T10:53:56.208Z,950.82
2018-03-22T10:54:56.169Z,950.75
2018-03-22T10:55:56.152Z,950.88
2018-03-22T10:56:56.135Z,950.83
2018-03-22T10:57:56.119Z,950.83
2018-03-22T10:58:56.102Z,950.76
2018-03-22T10:59:56.093Z,950.84
2018-03-22T11:00:56.069Z,950.77
2018-03-22T11:01:56.053Z,950.81
2018-03-22T11:02:56.036Z,950.78
2018-03-22T11:03:56.019Z,950.82
2018-03-22T11:04:56.002Z,950.87
2018-03-22T11:05:55.985Z,950.75
2018-03-22T11:06:55.968Z,950.75
2018-03-22T11:07:55.952Z,950.73
2018-03-22T11:08:55.935Z,950.68
2018-03-22T11:09:55.918Z,950.7
2018-03-22T11:10:55.902Z,950.68
2018-03-22T11:11:55.885Z,950.66
2018-03-22T11:12:55.870Z,950.74
2018-03-22T11:13:55.853Z,950.63
2018-03-22T11:14:55.834Z,950.68
2018-03-22T11:15:55.819Z,950.69
2018-03-22T11:16:55.802Z,950.65
2018-03-22T11:17:55.785Z,950.66
2018-03-22T11:18:55.769Z,950.57
2018-03-22T11:19:55.752Z,950.64
2018-03-22T11:20:55.736Z,950.62
2018-03-22T11:21:55.724Z,950.55
2018-03-22T11:22:55.703Z,950.55
2018-03-22T11:23:55.687Z,950.56
2018-03-22T11:24:55.672Z,950.59
2018-03-22T11:25:55.655Z,950.6
2018-03-22T11:26:55.638Z,950.6
2018-03-22T11:27:55.622Z,950.61
2018-03-22T11:28:55.605Z,950.57
2018-03-22T11:29:55.589Z,950.58
2018-03-22T11:30:55.572Z,950.54
2018-03-22T11:31:55.556Z,950.54
2018-03-22T11:32:55.539Z,950.54
2018-03-22T11:33:55.524Z,950.65
2018-03-22T11:34:55.509Z,950.5
2018-03-22T11:35:55.492Z,950.56
2018-03-22T11:36:55.480Z,950.58
2018-03-22T11:37:55.459Z,950.48
2018-03-22T11:38:55.443Z,950.47
2018-03-22T11:39:55.427Z,950.52
2018-03-22T11:40:55.410Z,950.51
2018-03-22T11:41:55.399Z,950.51
2018-03-22T11:42:55.379Z,950.43
2018-03-22T11:43:55.362Z,950.46
2018-03-22T11:44:55.346Z,950.47
2018-03-22T11:45:55.329Z,950.43
2018-03-22T11:46:55.314Z,950.41
2018-03-22T11:47:55.298Z,950.43
2018-03-22T11:48:55.283Z,950.42
2018-03-22T11:49:55.266Z,950.42
2018-03-22T11:50:55.250Z,950.37
2018-03-22T11:51:55.239Z,950.37
2018-03-22T11:52:55.218Z,950.47
2018-03-22T11:53:55.243Z,950.33
2018-03-22T11:54:55.185Z,950.38
2018-03-22T11:55:55.170Z,950.42
2018-03-22T11:56:55.154Z,950.38
2018-03-22T11:57:55.137Z,950.33
2018-03-22T11:58:55.120Z,950.35
2018-03-22T11:59:55.105Z,950.28
2018-03-22T12:00:55.089Z,950.26
2018-03-22T12:01:55.181Z,950.27
2018-03-22T12:02:55.056Z,950.26
2018-03-22T12:03:55.040Z,950.16
2018-03-22T12:04:55.024Z,950.16
2018-03-22T12:05:55.007Z,950.18
2018-03-22T12:06:54.991Z,950.1
2018-03-22T12:07:54.976Z,950.08
2018-03-22T12:08:54.957Z,950.07
2018-03-22T12:09:54.941Z,950.07
2018-03-22T12:10:54.925Z,950.05
2018-03-22T12:11:54.910Z,950.02
2018-03-22T12:12:54.892Z,950.02
2018-03-22T12:13:54.876Z,949.98
2018-03-22T12:14:54.860Z,949.9
2018-03-22T12:15:54.845Z,950.01
2018-03-22T12:16:54.827Z,949.96
2018-03-22T12:17:54.812Z,949.96
2018-03-22T12:18:54.796Z,949.92
2018-03-22T12:19:54.778Z,949.9
2018-03-22T12:20:54.762Z,949.96
2018-03-22T12:21:54.746Z,949.86
2018-03-22T12:22:54.730Z,949.91
2018-03-22T12:23:54.713Z,949.86
2018-03-22T12:24:54.697Z,949.9
2018-03-22T12:25:54.682Z,949.93
2018-03-22T12:26:54.666Z,949.88
2018-03-22T12:27:54.648Z,949.92
2018-03-22T12:28:54.633Z,949.9
2018-03-22T12:29:54.618Z,949.87
2018-03-22T12:30:54.601Z,949.85